Ridott, Illinois
Current Conditions -  °F | °C
As of 2:55 PM on Thursday 23 Oct 2014 (Local Time) from KFEP Reporting Station
Overcast Overcast  
Wind Chill: 60°   Ceiling: 3300
Heat Index: 60°   Visibility: 10mi
Dew Point: 44°   Wind: 15mph
Humidity: 55%   Direction: 190°S
Pressure: 30.06"   Gusts: NA
Location:  42.3°N, 89.48°W
Report Text: KFEP 231955Z AUTO 19013KT 10SM BKN033 OVC065 16/07 A3006 RMK AO2 T01560067
Loading
Personal Weather Stations






























Interactive Weather Map
Tropical Storm Tracking
New forecast layout! Learn more

10-Day Weather Forecast

Advertisements
Track Severe Weather on mobile